Time;durP1;ratioP1;P1;durP2;ratioP2;P2;SDS_P1;SDS_P2;PMS_P1;PMS_P2;Temp;Humidity;BMP_temperature;BMP_pressure;BME280_temperature;BME280_humidity;BME280_pressure;Samples;Min_cycle;Max_cycle;Signal;HPM_P1;HPM_P2
2022/11/08 00:02:06;;;;;;;9.60;3.60;;;;;;;10.48;61.99;100064.47;10515180;28;20243;-80
2022/11/08 00:18:49;;;;;;;4.50;1.33;;;;;;;10.23;62.33;100079.53;10536568;28;20224;-82
2022/11/08 00:24:11;;;;;;;6.70;1.97;;;;;;;10.30;62.28;100068.59;10537919;28;20287;-82
2022/11/08 00:29:37;;;;;;;5.43;1.20;;;;;;;10.18;62.92;100071.28;10537781;28;20244;-81
2022/11/08 00:34:59;;;;;;;5.17;1.67;;;;;;;10.26;62.09;100066.78;10526808;28;20218;-82
2022/11/08 00:40:21;;;;;;;6.20;1.48;;;;;;;10.14;62.54;100059.06;10540587;28;20541;-81
2022/11/08 00:45:43;;;;;;;7.23;2.03;;;;;;;10.14;62.26;100064.69;10533970;28;20233;-81
2022/11/08 00:51:07;;;;;;;9.38;1.40;;;;;;;10.06;62.07;100055.09;10491750;28;20503;-81
2022/11/08 00:56:29;;;;;;;6.57;1.93;;;;;;;10.08;62.47;100066.84;10519374;28;20220;-80
2022/11/08 01:01:51;;;;;;;7.65;1.77;;;;;;;9.67;63.96;100070.34;10546859;28;20198;-80
2022/11/08 01:07:14;;;;;;;4.90;1.10;;;;;;;10.19;61.60;100065.31;10548129;28;20214;-80
2022/11/08 01:12:36;;;;;;;5.73;2.47;;;;;;;10.50;60.48;100052.88;10548612;28;20248;-81
2022/11/08 01:17:58;;;;;;;6.77;1.90;;;;;;;10.10;61.55;100058.91;10532922;28;20264;-80
2022/11/08 01:23:20;;;;;;;6.20;1.60;;;;;;;10.78;59.41;100056.00;10547340;28;20660;-81
2022/11/08 01:28:43;;;;;;;8.17;2.07;;;;;;;10.52;60.47;100053.34;10546818;28;20287;-81
2022/11/08 01:34:05;;;;;;;9.73;3.03;;;;;;;10.33;60.39;100050.16;10552170;28;20256;-82
2022/11/08 01:39:31;;;;;;;6.97;1.40;;;;;;;10.67;59.75;100037.84;10509068;28;20534;-80
2022/11/08 01:45:06;;;;;;;5.30;1.40;;;;;;;10.35;60.33;100039.38;10491499;28;20207;-81
2022/11/08 01:50:28;;;;;;;6.93;1.77;;;;;;;10.46;60.14;100043.44;10504645;28;20237;-80
2022/11/08 01:55:50;;;;;;;6.57;1.70;;;;;;;10.19;60.47;100034.31;10510422;28;20564;-81
2022/11/08 02:01:12;;;;;;;5.77;1.27;;;;;;;10.43;60.09;100022.44;10545293;28;20191;-84
2022/11/08 02:06:36;;;;;;;2.30;1.13;;;;;;;10.41;60.17;100016.31;10533169;28;20245;-81
2022/11/08 02:11:58;;;;;;;5.33;1.47;;;;;;;10.55;59.21;100019.69;10516138;28;20194;-81
2022/11/08 02:17:20;;;;;;;3.93;1.50;;;;;;;10.92;57.69;100017.09;10544863;28;20212;-81
2022/11/08 02:22:49;;;;;;;4.47;1.70;;;;;;;10.90;57.45;100016.59;10545979;28;20232;-81
2022/11/08 02:28:12;;;;;;;4.07;0.80;;;;;;;10.79;58.23;100018.19;10505233;28;20219;-81
2022/11/08 02:33:34;;;;;;;4.63;0.90;;;;;;;10.83;57.87;99997.41;10520041;28;20226;-82
2022/11/08 02:38:57;;;;;;;7.37;1.10;;;;;;;10.57;58.61;99989.13;10512521;28;20239;-80
2022/11/08 02:44:20;;;;;;;2.35;0.90;;;;;;;11.12;56.87;99982.38;10533770;28;20252;-81
2022/11/08 02:49:42;;;;;;;5.17;1.00;;;;;;;11.14;55.92;99974.38;10514036;28;20195;-81
2022/11/08 02:55:04;;;;;;;3.57;0.70;;;;;;;11.52;53.81;99974.13;10521983;28;20191;-82
2022/11/08 03:00:27;;;;;;;3.63;0.97;;;;;;;11.18;53.81;99975.34;10520949;28;20591;-83
2022/11/08 03:05:49;;;;;;;1.87;0.70;;;;;;;10.90;53.63;99972.31;10520745;28;20260;-81
2022/11/08 03:11:11;;;;;;;4.13;0.70;;;;;;;11.04;53.96;99960.72;10518945;28;20216;-82
2022/11/08 03:16:33;;;;;;;1.90;0.70;;;;;;;10.87;54.07;99952.44;10532363;28;20648;-82
2022/11/08 03:21:55;;;;;;;0.87;0.50;;;;;;;11.12;53.83;99945.69;10543903;28;20232;-80
2022/11/08 03:27:18;;;;;;;5.70;0.87;;;;;;;10.76;55.52;99939.94;10536317;28;20244;-82
2022/11/08 03:32:40;;;;;;;6.80;0.80;;;;;;;10.41;57.00;99933.78;10502958;28;20215;-81
2022/11/08 03:38:02;;;;;;;4.57;0.70;;;;;;;10.07;57.51;99930.03;10541880;28;20190;-81
2022/11/08 03:43:25;;;;;;;3.73;0.77;;;;;;;10.32;57.00;99925.38;10542513;28;20186;-81
2022/11/08 03:48:47;;;;;;;1.30;0.50;;;;;;;10.63;56.44;99926.97;10536407;28;20484;-81
2022/11/08 03:54:09;;;;;;;3.40;0.80;;;;;;;10.36;57.73;99920.72;10501200;28;20187;-80
2022/11/08 03:59:31;;;;;;;4.00;1.10;;;;;;;10.23;58.53;99915.34;10492470;28;20195;-81
2022/11/08 04:04:53;;;;;;;2.13;1.10;;;;;;;10.23;58.63;99904.91;10520520;28;20244;-80
2022/11/08 04:10:16;;;;;;;4.10;0.87;;;;;;;9.88;59.90;99910.00;10502289;28;20599;-81
2022/11/08 04:15:39;;;;;;;5.70;1.20;;;;;;;9.93;60.14;99906.97;10499755;28;20199;-81
2022/11/08 04:21:20;;;;;;;3.90;1.20;;;;;;;10.08;58.99;99897.09;10485864;28;20199;-84
2022/11/08 04:26:42;;;;;;;2.50;0.73;;;;;;;10.25;59.00;99908.22;10517479;28;20236;-81
2022/11/08 04:32:04;;;;;;;3.83;0.93;;;;;;;9.97;59.67;99898.66;10571130;28;20275;-80
2022/11/08 04:37:26;;;;;;;3.60;1.07;;;;;;;9.97;59.31;99890.22;10553727;28;20483;-80
2022/11/08 04:42:48;;;;;;;3.43;0.87;;;;;;;10.12;58.69;99889.59;10548656;28;20194;-80
2022/11/08 04:48:10;;;;;;;2.53;0.83;;;;;;;10.15;58.74;99894.56;10566709;28;20215;-80
2022/11/08 04:53:33;;;;;;;2.97;0.90;;;;;;;10.29;58.09;99881.03;10533927;28;20198;-87
2022/11/08 04:58:57;;;;;;;4.07;0.60;;;;;;;10.04;59.14;99873.63;10534386;28;20217;-88
2022/11/08 05:04:19;;;;;;;2.50;0.87;;;;;;;10.04;59.31;99851.91;10534351;28;20243;-89
2022/11/08 05:09:41;;;;;;;1.17;0.50;;;;;;;9.97;59.25;99848.81;10531956;28;20218;-85
2022/11/08 05:15:04;;;;;;;3.07;0.77;;;;;;;9.79;59.90;99855.72;10533183;28;20202;-81
2022/11/08 05:26:07;;;;;;;2.15;0.70;;;;;;;9.55;60.74;99845.09;10552207;28;20252;-81
2022/11/08 05:31:29;;;;;;;3.63;0.90;;;;;;;9.65;59.65;99827.88;10491215;28;20284;-80
2022/11/08 05:36:51;;;;;;;2.73;1.00;;;;;;;9.67;59.96;99811.44;10510498;28;20202;-81
2022/11/08 05:42:13;;;;;;;2.57;1.03;;;;;;;9.76;58.81;99806.59;10546607;28;20252;-81
2022/11/08 05:47:36;;;;;;;3.17;0.97;;;;;;;9.70;59.23;99799.50;10538507;28;20215;-85
2022/11/08 05:52:59;;;;;;;3.33;0.70;;;;;;;9.67;58.57;99790.94;10491339;28;20199;-80
2022/11/08 05:58:21;;;;;;;3.17;1.13;;;;;;;9.29;59.36;99796.63;10517307;28;20766;-80
2022/11/08 06:03:43;;;;;;;4.17;0.90;;;;;;;9.69;57.83;99778.16;10530725;28;20195;-80
2022/11/08 06:09:06;;;;;;;3.57;1.13;;;;;;;9.62;58.45;99780.69;10519187;28;20522;-80
2022/11/08 06:14:28;;;;;;;4.97;1.43;;;;;;;9.68;57.57;99790.59;10503087;28;20550;-81
2022/11/08 06:19:50;;;;;;;2.90;1.13;;;;;;;9.54;58.34;99767.50;10528820;28;20619;-81
2022/11/08 06:25:12;;;;;;;3.38;1.35;;;;;;;9.90;56.91;99772.53;10544999;28;20206;-81
2022/11/08 06:30:35;;;;;;;2.23;1.10;;;;;;;9.50;57.36;99752.47;10518361;28;20241;-81
2022/11/08 06:35:57;;;;;;;2.87;0.90;;;;;;;9.75;56.28;99743.03;10503045;28;20206;-82
2022/11/08 06:41:19;;;;;;;1.27;0.80;;;;;;;9.92;55.13;99727.13;10526124;28;20199;-81
2022/11/08 06:46:41;;;;;;;2.20;0.83;;;;;;;9.91;54.42;99703.81;10528887;28;20203;-83
2022/11/08 06:52:03;;;;;;;2.43;1.00;;;;;;;9.77;54.74;99709.75;10531987;28;20217;-81
2022/11/08 06:57:25;;;;;;;3.20;0.60;;;;;;;9.90;53.36;99704.16;10523972;28;20261;-82
2022/11/08 07:02:52;;;;;;;2.73;0.80;;;;;;;9.98;52.89;99706.06;10513544;28;20251;-81
2022/11/08 07:08:14;;;;;;;2.57;0.70;;;;;;;10.06;51.88;99699.50;10521388;28;20574;-83
2022/11/08 07:13:36;;;;;;;1.67;0.77;;;;;;;10.09;50.97;99708.09;10513138;28;20207;-81
2022/11/08 07:18:58;;;;;;;3.70;0.43;;;;;;;10.46;49.49;99700.53;10527601;28;20190;-81
2022/11/08 07:24:21;;;;;;;1.13;0.57;;;;;;;10.49;47.67;99697.00;10519923;28;20203;-81
2022/11/08 07:29:43;;;;;;;3.03;0.83;;;;;;;10.59;47.51;99704.19;10531008;28;20284;-81
2022/11/08 07:35:05;;;;;;;2.28;0.77;;;;;;;10.62;47.26;99708.31;10531477;28;20303;-81
2022/11/08 07:40:28;;;;;;;1.30;0.50;;;;;;;10.88;46.52;99714.44;10535034;28;20189;-84
2022/11/08 07:45:58;;;;;;;2.27;0.57;;;;;;;11.00;45.57;99707.97;10521144;28;20191;-81
2022/11/08 07:51:20;;;;;;;0.90;0.22;;;;;;;10.91;45.17;99716.56;10536471;28;20187;-84
2022/11/08 07:56:42;;;;;;;2.63;0.60;;;;;;;11.16;45.54;99706.91;10531001;28;20656;-81
2022/11/08 08:02:04;;;;;;;1.03;0.37;;;;;;;11.50;44.40;99699.91;10533995;28;20210;-80
2022/11/08 08:07:26;;;;;;;1.33;0.30;;;;;;;11.47;44.35;99708.25;10516311;28;20241;-80
2022/11/08 08:12:48;;;;;;;1.35;0.43;;;;;;;11.37;44.64;99695.44;10537763;28;20228;-81
2022/11/08 08:18:11;;;;;;;3.60;0.50;;;;;;;11.52;44.30;99679.78;10525521;28;20190;-80
2022/11/08 08:23:33;;;;;;;2.95;0.47;;;;;;;11.95;43.33;99693.97;10520792;28;20264;-81
2022/11/08 08:28:55;;;;;;;1.25;0.40;;;;;;;11.69;44.15;99685.16;10524909;28;20230;-81
2022/11/08 08:34:17;;;;;;;0.93;0.30;;;;;;;11.74;43.86;99693.34;10520835;28;20625;-83
2022/11/08 08:39:39;;;;;;;2.65;0.60;;;;;;;11.95;43.70;99699.63;10515483;28;20187;-81
2022/11/08 08:45:01;;;;;;;0.90;0.45;;;;;;;12.04;43.57;99701.44;10530209;28;20192;-84
2022/11/08 08:50:24;;;;;;;1.90;0.30;;;;;;;12.42;43.01;99695.25;10513303;28;20671;-82
2022/11/08 08:55:52;;;;;;;2.30;0.40;;;;;;;12.35;42.85;99701.50;10517664;28;20191;-83
2022/11/08 09:01:15;;;;;;;2.63;0.53;;;;;;;12.33;42.88;99692.56;10525551;28;20186;-83
2022/11/08 09:06:37;;;;;;;1.13;0.53;;;;;;;11.83;44.14;99679.91;10532536;28;20202;-80
2022/11/08 09:11:59;;;;;;;1.27;0.52;;;;;;;11.71;44.19;99679.97;10533097;28;20210;-82
2022/11/08 09:17:22;;;;;;;0.63;0.37;;;;;;;11.80;44.16;99682.63;10535937;28;20195;-81
2022/11/08 09:22:44;;;;;;;0.80;0.40;;;;;;;12.15;43.20;99674.31;10531487;28;20187;-81
2022/11/08 09:28:06;;;;;;;1.30;0.40;;;;;;;12.04;43.13;99670.38;10531391;28;20267;-81
2022/11/08 09:33:28;;;;;;;0.30;0.30;;;;;;;12.25;42.03;99679.44;10501896;28;20264;-80
2022/11/08 09:38:50;;;;;;;1.17;0.30;;;;;;;12.75;40.79;99692.88;10539979;28;20206;-81
2022/11/08 09:44:18;;;;;;;2.15;0.30;;;;;;;12.27;40.49;99691.19;10539540;28;20186;-82
2022/11/08 09:49:44;;;;;;;3.10;0.52;;;;;;;12.33;40.48;99701.06;10565778;28;20688;-82
2022/11/08 09:55:28;;;;;;;0.63;0.55;;;;;;;12.55;40.43;99694.78;10548508;28;20873;-82
2022/11/08 10:00:50;;;;;;;1.90;0.40;;;;;;;12.21;40.99;99712.44;10543863;28;20530;-81
2022/11/08 10:06:26;;;;;;;0.90;0.63;;;;;;;12.55;40.63;99710.94;10531863;28;20680;-82
2022/11/08 10:12:23;;;;;;;1.42;0.47;;;;;;;12.31;41.23;99706.25;10528518;28;20259;-80
2022/11/08 10:18:15;;;;;;;1.85;0.40;;;;;;;12.36;42.20;99697.53;10511545;28;20183;-80
2022/11/08 10:23:58;;;;;;;2.37;0.50;;;;;;;12.34;42.26;99688.56;10540925;28;20203;-83
2022/11/08 10:29:25;;;;;;;2.20;0.30;;;;;;;12.26;42.94;99687.53;10520338;28;20206;-81
2022/11/08 10:35:05;;;;;;;2.47;0.43;;;;;;;12.20;43.37;99662.75;10506625;28;20284;-80
2022/11/08 10:40:44;;;;;;;3.22;0.50;;;;;;;12.32;42.93;99666.31;10523355;28;20195;-81
2022/11/08 10:46:42;;;;;;;3.63;0.50;;;;;;;12.15;43.46;99663.00;10521296;28;20594;-81
2022/11/08 10:52:11;;;;;;;0.95;0.50;;;;;;;11.82;43.68;99652.84;10518775;28;20232;-81
2022/11/08 10:57:41;;;;;;;1.77;0.70;;;;;;;12.21;43.20;99633.31;10524461;28;20240;-81
2022/11/08 11:03:27;;;;;;;4.77;0.67;;;;;;;12.16;43.40;99633.59;10528081;28;20191;-82
2022/11/08 11:08:54;;;;;;;1.57;0.83;;;;;;;11.68;44.12;99641.16;10520402;28;20210;-81
2022/11/08 11:14:18;;;;;;;2.90;0.60;;;;;;;12.35;42.83;99650.66;10521810;28;20276;-83
2022/11/08 11:19:44;;;;;;;0.93;0.52;;;;;;;12.18;43.23;99648.16;10497886;28;20195;-84
2022/11/08 11:25:14;;;;;;;2.65;0.73;;;;;;;11.89;43.88;99644.56;10520712;28;20680;-84
2022/11/08 11:30:36;;;;;;;3.47;0.80;;;;;;;11.87;43.87;99646.94;10503791;28;20239;-81
2022/11/08 11:36:11;;;;;;;2.43;1.00;;;;;;;12.11;43.70;99622.56;10521388;28;20191;-82
2022/11/08 11:41:54;;;;;;;1.00;0.60;;;;;;;12.16;43.47;99616.63;10523050;28;20183;-82
2022/11/08 11:47:25;;;;;;;6.77;0.90;;;;;;;11.84;44.01;99605.31;10523819;28;20264;-81
2022/11/08 11:52:47;;;;;;;1.87;0.80;;;;;;;12.05;43.59;99612.72;10521391;28;20186;-83
2022/11/08 11:58:17;;;;;;;1.83;1.00;;;;;;;12.10;44.16;99620.94;10510425;28;20238;-81
2022/11/08 12:04:05;;;;;;;2.10;0.90;;;;;;;12.24;43.69;99604.34;10520274;28;20191;-81
2022/11/08 12:09:46;;;;;;;1.67;0.80;;;;;;;12.19;43.53;99596.13;10531734;28;20250;-82
2022/11/08 12:15:18;;;;;;;3.70;1.00;;;;;;;12.75;42.81;99612.91;10534604;28;20202;-81
2022/11/08 12:20:59;;;;;;;1.90;0.67;;;;;;;12.98;42.62;99599.69;10530285;28;20240;-81
2022/11/08 12:26:52;;;;;;;3.00;0.70;;;;;;;12.57;42.84;99596.31;10541303;28;20223;-83
2022/11/08 12:32:33;;;;;;;2.63;0.67;;;;;;;12.96;42.28;99604.88;10518703;28;20219;-80
2022/11/08 12:38:30;;;;;;;0.80;0.60;;;;;;;13.10;42.23;99608.03;10522610;28;20190;-81
2022/11/08 12:44:02;;;;;;;1.70;0.65;;;;;;;13.47;41.79;99599.97;10522232;28;20241;-81
2022/11/08 12:49:51;;;;;;;1.00;0.68;;;;;;;12.94;41.90;99593.13;10539332;28;20267;-80
2022/11/08 12:55:35;;;;;;;1.83;0.60;;;;;;;13.65;41.32;99586.19;10523824;28;20556;-82
2022/11/08 13:01:01;;;;;;;3.58;0.55;;;;;;;13.80;40.75;99599.41;10544659;28;20220;-81
2022/11/08 13:06:42;;;;;;;1.10;0.73;;;;;;;13.45;41.08;99624.16;10544334;28;20244;-82
2022/11/08 13:12:27;;;;;;;2.95;0.50;;;;;;;12.70;42.71;99625.28;10527074;28;20252;-84
2022/11/08 13:18:05;;;;;;;2.35;0.70;;;;;;;12.83;42.79;99606.19;10539167;28;20195;-81
2022/11/08 13:23:31;;;;;;;2.55;0.55;;;;;;;13.01;42.55;99627.25;10539359;28;20190;-83
2022/11/08 13:29:27;;;;;;;2.80;0.80;;;;;;;13.39;42.15;99632.97;10536279;28;20218;-80
2022/11/08 13:35:10;;;;;;;2.42;1.13;;;;;;;13.16;42.71;99612.19;10552400;28;20222;-81
2022/11/08 13:40:48;;;;;;;3.03;1.07;;;;;;;12.50;43.84;99589.69;10530917;28;20239;-83
2022/11/08 13:46:26;;;;;;;4.00;1.08;;;;;;;12.15;45.13;99586.75;10545826;28;20240;-81
2022/11/08 13:51:50;;;;;;;2.08;1.08;;;;;;;12.21;45.49;99576.81;10540526;28;20229;-81
2022/11/08 13:57:16;;;;;;;3.13;1.48;;;;;;;12.50;45.08;99567.06;10528974;28;20258;-81
2022/11/08 14:02:39;;;;;;;2.80;1.40;;;;;;;11.89;46.06;99576.78;10534128;28;20212;-80
2022/11/08 14:08:11;;;;;;;2.05;1.30;;;;;;;12.94;44.39;99559.19;10511267;28;20238;-81
2022/11/08 14:13:43;;;;;;;3.70;1.00;;;;;;;12.47;45.26;99562.97;10523775;28;20280;-82
2022/11/08 14:19:17;;;;;;;4.22;0.98;;;;;;;12.62;45.08;99581.09;10519393;28;20590;-82
2022/11/08 14:24:39;;;;;;;6.32;0.70;;;;;;;12.17;45.92;99570.25;10521917;28;20448;-81
2022/11/08 14:30:03;;;;;;;2.15;0.82;;;;;;;12.02;46.46;99551.28;10521704;28;20586;-80
2022/11/08 14:35:25;;;;;;;2.80;0.50;;;;;;;12.54;45.08;99551.00;10519142;28;20245;-82
2022/11/08 14:40:50;;;;;;;1.67;0.68;;;;;;;12.24;45.75;99550.66;10521920;28;20244;-81
2022/11/08 14:46:23;;;;;;;4.53;0.68;;;;;;;12.43;45.31;99562.06;10524708;28;20228;-81
2022/11/08 14:51:46;;;;;;;1.20;0.80;;;;;;;12.34;45.14;99547.28;10521583;28;20260;-81
2022/11/08 14:57:38;;;;;;;2.85;0.70;;;;;;;12.18;45.65;99549.28;10527125;28;20598;-82
2022/11/08 15:03:03;;;;;;;2.65;0.80;;;;;;;12.01;46.08;99550.47;10534479;28;20263;-82
2022/11/08 15:08:44;;;;;;;1.87;0.93;;;;;;;12.51;45.00;99551.75;10512768;28;20268;-83
2022/11/08 15:14:28;;;;;;;2.92;1.00;;;;;;;11.98;46.57;99546.41;10532281;28;20763;-81
2022/11/08 15:19:50;;;;;;;4.22;1.40;;;;;;;12.24;45.86;99550.66;10497785;28;20195;-82
2022/11/08 15:25:23;;;;;;;2.20;0.95;;;;;;;12.29;46.15;99558.84;10536048;28;20622;-81
2022/11/08 15:30:45;;;;;;;3.53;1.50;;;;;;;12.61;45.55;99552.00;10524902;28;20264;-81
2022/11/08 15:36:12;;;;;;;3.53;0.98;;;;;;;12.31;46.11;99550.81;10516466;28;20210;-82
2022/11/08 15:41:37;;;;;;;2.10;1.13;;;;;;;12.69;45.77;99544.50;10540938;28;20475;-82
2022/11/08 15:46:59;;;;;;;5.75;1.05;;;;;;;12.17;46.83;99545.66;10538232;28;20186;-82
2022/11/08 15:52:21;;;;;;;5.28;1.85;;;;;;;12.33;46.57;99531.50;10526379;28;20238;-81
2022/11/08 15:57:44;;;;;;;2.03;0.60;;;;;;;12.08;47.20;99528.06;10533888;28;20194;-82
2022/11/08 16:03:07;;;;;;;2.28;0.80;;;;;;;12.25;46.97;99524.84;10525858;28;20202;-84
2022/11/08 16:08:29;;;;;;;1.85;1.00;;;;;;;12.65;45.63;99530.25;10532616;28;20306;-80
2022/11/08 16:13:52;;;;;;;3.10;0.87;;;;;;;12.39;46.59;99527.22;10529154;28;20275;-85
2022/11/08 16:19:20;;;;;;;2.25;0.88;;;;;;;12.31;47.26;99517.75;10538211;28;20190;-81
2022/11/08 16:24:42;;;;;;;2.87;0.60;;;;;;;12.25;47.04;99507.91;10516239;28;20607;-86
2022/11/08 16:30:12;;;;;;;1.58;0.75;;;;;;;12.37;46.81;99518.31;10509904;28;20249;-84
2022/11/08 16:35:34;;;;;;;3.47;0.90;;;;;;;12.86;45.49;99512.97;10505368;28;20300;-81
2022/11/08 16:40:56;;;;;;;1.70;0.88;;;;;;;12.18;47.29;99527.50;10511401;28;20602;-82
2022/11/08 16:46:19;;;;;;;3.22;0.80;;;;;;;12.49;46.95;99525.84;10514804;28;20222;-80
2022/11/08 16:51:41;;;;;;;1.70;0.55;;;;;;;12.53;46.82;99521.91;10503949;28;20308;-81
2022/11/08 16:57:03;;;;;;;2.22;0.82;;;;;;;12.41;47.15;99529.69;10501439;28;20252;-84
2022/11/08 17:02:30;;;;;;;1.83;0.77;;;;;;;12.37;47.35;99529.63;10502058;28;20222;-81
2022/11/08 17:07:52;;;;;;;2.38;0.85;;;;;;;12.47;47.38;99516.94;10503512;28;20237;-80
2022/11/08 17:13:15;;;;;;;2.33;0.60;;;;;;;12.49;47.34;99526.69;10531998;28;20230;-85
2022/11/08 17:18:40;;;;;;;3.45;0.90;;;;;;;12.91;46.44;99537.28;10511518;28;20276;-80
2022/11/08 17:24:03;;;;;;;2.10;0.70;;;;;;;12.39;47.82;99535.69;10510172;28;20223;-80
2022/11/08 17:29:25;;;;;;;1.07;0.70;;;;;;;12.97;46.09;99524.50;10510349;28;20691;-80
2022/11/08 17:34:47;;;;;;;1.27;0.80;;;;;;;12.86;46.60;99541.25;10529060;28;20634;-81
2022/11/08 17:40:09;;;;;;;7.27;0.70;;;;;;;12.80;47.03;99539.06;10522025;28;20218;-83
2022/11/08 17:45:32;;;;;;;1.43;0.73;;;;;;;12.77;47.41;99553.97;10502959;28;20316;-80
2022/11/08 17:50:54;;;;;;;10.15;1.20;;;;;;;13.30;46.40;99550.28;10516314;28;20296;-84
2022/11/08 17:56:16;;;;;;;1.00;0.63;;;;;;;13.00;48.06;99554.88;10522345;28;20281;-85
2022/11/08 18:01:38;;;;;;;1.67;0.82;;;;;;;12.61;48.55;99540.69;10504409;28;20655;-83
2022/11/08 18:07:00;;;;;;;2.65;1.73;;;;;;;12.44;48.71;99535.44;10510110;28;20289;-80
2022/11/08 18:12:22;;;;;;;1.15;0.77;;;;;;;13.08;47.58;99530.38;10507635;28;20817;-79
2022/11/08 18:17:44;;;;;;;2.80;0.90;;;;;;;12.50;48.94;99542.44;10507982;28;20252;-79
2022/11/08 18:23:08;;;;;;;2.50;1.10;;;;;;;12.75;48.40;99516.75;10502218;28;20291;-79
2022/11/08 18:28:31;;;;;;;2.13;0.90;;;;;;;12.65;48.40;99529.44;10500898;28;20308;-80
2022/11/08 18:33:53;;;;;;;2.05;0.70;;;;;;;12.67;48.56;99539.19;10509566;28;20245;-82
2022/11/08 18:39:15;;;;;;;1.75;0.80;;;;;;;12.58;48.90;99530.13;10495378;28;20253;-80
2022/11/08 18:44:38;;;;;;;2.75;0.88;;;;;;;12.83;48.19;99535.50;10512559;28;20217;-80
2022/11/08 18:50:01;;;;;;;2.97;1.57;;;;;;;12.59;49.18;99531.75;10522487;28;20272;-81
2022/11/08 18:55:23;;;;;;;3.95;1.08;;;;;;;13.02;47.87;99524.22;10503348;28;20286;-80
2022/11/08 19:00:45;;;;;;;1.55;0.95;;;;;;;13.00;47.89;99510.44;10539203;27;20199;-80
2022/11/08 19:06:08;;;;;;;2.53;0.73;;;;;;;13.26;47.80;99521.09;10504450;28;20291;-80
2022/11/08 19:11:30;;;;;;;1.48;0.75;;;;;;;12.94;48.00;99525.25;10500836;28;20242;-84
2022/11/08 19:16:54;;;;;;;1.83;0.90;;;;;;;13.18;47.52;99524.13;10513426;28;20223;-81
2022/11/08 19:22:18;;;;;;;1.15;0.90;;;;;;;13.34;47.22;99519.22;10506777;28;20251;-80
2022/11/08 19:27:40;;;;;;;2.47;0.87;;;;;;;12.90;47.98;99519.50;10507416;28;20247;-81
2022/11/08 19:33:02;;;;;;;2.92;1.00;;;;;;;13.29;47.25;99533.69;10520459;28;20839;-80
2022/11/08 19:38:24;;;;;;;3.63;1.15;;;;;;;12.97;48.38;99524.50;10504919;28;20226;-80
2022/11/08 19:44:05;;;;;;;1.13;1.00;;;;;;;13.28;47.50;99544.19;10528839;28;20271;-80
2022/11/08 19:49:28;;;;;;;3.78;1.27;;;;;;;13.15;47.86;99542.69;10519440;28;20257;-80
2022/11/08 19:54:50;;;;;;;1.08;0.70;;;;;;;13.10;48.52;99540.13;10522423;28;20213;-80
2022/11/08 20:00:14;;;;;;;4.43;0.98;;;;;;;13.17;48.22;99537.44;10507365;28;20191;-79
2022/11/08 20:05:36;;;;;;;2.80;1.10;;;;;;;13.12;48.97;99546.25;10515426;28;20245;-79
2022/11/08 20:10:58;;;;;;;2.60;1.00;;;;;;;13.53;48.00;99541.03;10523870;28;20274;-80
2022/11/08 20:16:23;;;;;;;2.20;0.67;;;;;;;13.47;47.64;99543.34;10511463;28;20230;-80
2022/11/08 20:21:45;;;;;;;1.23;0.80;;;;;;;13.12;48.91;99549.09;10504557;28;20679;-79
2022/11/08 20:27:07;;;;;;;1.90;1.10;;;;;;;13.46;48.24;99553.03;10519856;28;20257;-80
2022/11/08 20:32:29;;;;;;;1.13;0.93;;;;;;;13.22;48.52;99551.34;10506397;28;20657;-82
2022/11/08 20:37:55;;;;;;;2.13;0.95;;;;;;;13.49;48.25;99568.44;10503815;28;21110;-79
2022/11/08 20:43:17;;;;;;;2.95;1.38;;;;;;;13.21;49.19;99569.50;10514025;28;20226;-79
2022/11/08 20:48:42;;;;;;;1.13;1.03;;;;;;;13.08;49.21;99582.13;10520151;28;20570;-79
2022/11/08 20:54:04;;;;;;;4.17;1.10;;;;;;;13.37;48.75;99577.94;10498828;28;20230;-81
2022/11/08 20:59:27;;;;;;;2.15;0.80;;;;;;;12.81;50.38;99564.16;10523933;28;20595;-79
2022/11/08 21:04:49;;;;;;;2.33;0.77;;;;;;;13.21;49.31;99569.50;10521920;28;20644;-79
2022/11/08 21:10:11;;;;;;;1.58;0.82;;;;;;;13.00;49.85;99563.38;10522365;28;20304;-78
2022/11/08 21:15:33;;;;;;;1.95;0.70;;;;;;;13.11;49.87;99564.41;10520186;28;20704;-79
2022/11/08 21:21:08;;;;;;;3.08;1.08;;;;;;;12.89;50.05;99584.94;10518038;28;20222;-80
2022/11/08 21:26:34;;;;;;;3.55;0.95;;;;;;;12.81;50.80;99571.81;10509785;28;20821;-79
2022/11/08 21:31:56;;;;;;;2.03;1.00;;;;;;;13.44;49.71;99568.75;10533445;28;20315;-79
2022/11/08 21:37:18;;;;;;;1.42;0.60;;;;;;;13.01;50.89;99567.84;10519759;28;20222;-85
2022/11/08 21:42:41;;;;;;;2.70;1.45;;;;;;;13.48;49.78;99567.63;10525869;28;20533;-83
2022/11/08 21:48:03;;;;;;;2.10;0.97;;;;;;;13.20;50.75;99579.19;10534840;28;20222;-79
2022/11/08 21:53:25;;;;;;;2.63;0.85;;;;;;;13.48;49.75;99584.63;10542767;28;20245;-80
2022/11/08 21:58:47;;;;;;;1.90;0.70;;;;;;;13.09;50.59;99595.09;10548991;28;20239;-83
2022/11/08 22:04:09;;;;;;;4.63;1.10;;;;;;;13.51;48.90;99594.38;10557555;28;20235;-80
2022/11/08 22:09:31;;;;;;;2.08;0.82;;;;;;;12.98;50.63;99592.03;10541667;28;20570;-80
2022/11/08 22:14:54;;;;;;;1.15;0.88;;;;;;;12.99;50.75;99595.69;10557703;28;20740;-80
2022/11/08 22:20:16;;;;;;;5.82;0.90;;;;;;;13.15;50.53;99604.94;10519195;28;20195;-79
2022/11/08 22:25:41;;;;;;;1.23;0.80;;;;;;;13.25;50.58;99593.06;10544135;28;20207;-80
2022/11/08 22:31:03;;;;;;;1.92;0.80;;;;;;;13.04;50.87;99599.00;10558924;28;20214;-80
2022/11/08 22:36:26;;;;;;;0.98;0.75;;;;;;;13.08;50.58;99599.09;10556941;28;20193;-80
2022/11/08 22:41:51;;;;;;;2.22;0.88;;;;;;;12.89;51.51;99584.94;10548262;28;20195;-80
2022/11/08 22:47:13;;;;;;;2.60;0.80;;;;;;;12.89;51.45;99580.13;10538619;28;20683;-81
2022/11/08 22:52:35;;;;;;;1.17;0.80;;;;;;;12.84;51.34;99582.41;10539875;28;20223;-79
2022/11/08 22:57:57;;;;;;;1.33;0.77;;;;;;;12.82;51.21;99570.63;10543050;28;20291;-80
2022/11/08 23:03:19;;;;;;;2.03;0.70;;;;;;;13.09;50.83;99585.78;10544432;28;20202;-80
2022/11/08 23:08:42;;;;;;;1.53;0.60;;;;;;;13.33;50.29;99589.16;10546673;28;20195;-80
2022/11/08 23:25:25;;;;;;;2.90;0.40;;;;;;;13.10;51.09;99593.91;10520829;28;20268;-80
2022/11/08 23:36:28;;;;;;;1.02;0.38;;;;;;;13.27;50.48;99598.34;10536406;28;20247;-80
2022/11/08 23:47:30;;;;;;;1.30;0.60;;;;;;;13.12;51.01;99594.34;10536583;28;20240;-80
2022/11/08 23:52:53;;;;;;;3.35;0.68;;;;;;;13.17;50.73;99599.69;10533157;28;20442;-80
2022/11/08 23:58:16;;;;;;;1.47;0.50;;;;;;;12.83;52.21;99595.72;10524686;28;20210;-87
